Strona główna
METAR-TAF:

METAR-TAF

Lotnisko :

Lyndonville, Vermont, Stany Zjednoczone

Szerokość geograficzna: 44-34-09N, Długość geograficzna: 072-01-05W, wysokość: 362 m

Aktualna obserwacja pogody

Raport powstał 8 minut temu, godzina 15:15 UTC
Wiatr 3 kt od południowy wschód
Temperatura 4°C
Wilgotność 48%
Ciśnienie 1021 hPa
Widzialność: 16.1 km
bezchmurnie

METAR: KCDA 281515Z AUTO 13003KT 10SM CLR 04/M06 A3016 RMK AO2 T00401061

czas: 11:23 (15:23 UTC)


TAF: brakujący

Obserwacja i prognoza pogody dla ponad 4000 lotnisk (raport METAR i TAF).

Dostępne stacje oznaczono żółtymi i czerwonymi punktami na mapie.

Najedź kursorem aby zobaczyć nazwę stacji.

Kliknij aby zobaczyć obserwacje i prognozy pogody.

Aby zmienić mapę: kliknij na zielony przycisk z czarnym krzyżykiem, aby powiększyć; na zielony przycisk z myślnikiem, aby pomniejszyć; na zielone strzałki, aby przejść do map sąsiednich.


METAR-TAF: